Amherst, Canada
Current Conditions -  °F | °C
As of 11:11 AM on Thursday 18 Dec 2014 (Local Time) from CYQM Reporting Station
Light Snow Light Snow  
Wind Chill: 26°   Ceiling: 100
Heat Index: 34°   Visibility: 1.5mi
Dew Point: 32°   Wind: 9mph
Humidity: 93%   Direction: 230°SW
Pressure: 29.33"   Gusts: NA
Location:  45.85°N, 64.27°W
Report Text: CYQM 181511Z 23008KT 1 1/2SM -SN BR OVC001 01/00 A2933 RMK SF8 SLP936
Loading
Personal Weather Stations






























Interactive Weather Map New forecast layout! Learn more

10-Day Weather Forecast

Advertisements
Track Severe Weather on mobile